createdAt,value
2018-10-09T00:00:42.222Z,36.83
2018-10-09T00:04:15.460Z,33.97
2018-10-09T00:07:48.704Z,35.73
2018-10-09T00:11:21.933Z,33.30
2018-10-09T00:14:57.061Z,30.93
2018-10-09T00:18:30.321Z,34.93
2018-10-09T00:22:03.580Z,33.23
2018-10-09T00:25:36.833Z,33.50
2018-10-09T00:29:10.064Z,33.07
2018-10-09T00:32:43.306Z,37.20
2018-10-09T00:36:16.544Z,33.93
2018-10-09T00:39:49.783Z,35.00
2018-10-09T00:43:23.104Z,32.60
2018-10-09T00:46:56.350Z,34.00
2018-10-09T00:50:29.589Z,34.60
2018-10-09T00:54:02.820Z,35.17
2018-10-09T00:57:36.127Z,30.47
2018-10-09T01:01:09.424Z,30.37
2018-10-09T01:04:42.655Z,33.97
2018-10-09T01:08:15.888Z,29.10
2018-10-09T01:11:49.170Z,31.47
2018-10-09T01:15:22.399Z,30.43
2018-10-09T01:18:55.627Z,30.83
2018-10-09T01:22:28.866Z,35.47
2018-10-09T01:26:02.094Z,33.77
2018-10-09T01:29:35.311Z,34.80
2018-10-09T01:33:08.545Z,35.00
2018-10-09T01:36:41.782Z,37.00
2018-10-09T01:40:15.011Z,35.03
2018-10-09T01:43:48.258Z,31.80
2018-10-09T01:47:21.496Z,35.33
2018-10-09T01:50:54.753Z,38.90
2018-10-09T01:54:28.151Z,36.13
2018-10-09T01:58:01.396Z,34.20
2018-10-09T02:01:34.739Z,35.13
2018-10-09T02:05:08.033Z,32.70
2018-10-09T02:08:41.259Z,37.27
2018-10-09T02:12:14.560Z,35.07
2018-10-09T02:15:47.787Z,35.70
2018-10-09T02:19:21.020Z,31.03
2018-10-09T02:22:54.264Z,32.07
2018-10-09T02:26:27.490Z,38.23
2018-10-09T02:30:00.719Z,33.87
2018-10-09T02:33:33.992Z,38.70
2018-10-09T02:37:07.211Z,37.63
2018-10-09T02:40:40.424Z,38.20
2018-10-09T02:44:13.652Z,37.40
2018-10-09T02:47:46.901Z,35.87
2018-10-09T02:51:20.145Z,37.13
2018-10-09T02:54:53.364Z,36.00
2018-10-09T02:58:26.596Z,39.87
2018-10-09T03:01:59.828Z,39.53
2018-10-09T03:05:33.109Z,36.60
2018-10-09T03:09:07.077Z,34.97
2018-10-09T03:12:40.315Z,29.40
2018-10-09T03:16:13.567Z,34.43
2018-10-09T03:19:47.089Z,33.00
2018-10-09T03:23:20.317Z,31.60
2018-10-09T03:26:53.536Z,33.53
2018-10-09T03:30:26.751Z,31.30
2018-10-09T03:34:00.005Z,34.23
2018-10-09T03:37:33.240Z,37.50
2018-10-09T03:41:06.756Z,40.93
2018-10-09T03:44:39.975Z,33.83
2018-10-09T03:48:13.212Z,31.33
2018-10-09T03:51:46.668Z,35.13
2018-10-09T03:55:19.895Z,36.30
2018-10-09T03:58:53.137Z,34.23
2018-10-09T04:02:26.361Z,35.47
2018-10-09T04:05:59.590Z,40.40
2018-10-09T04:09:32.876Z,74.93
2018-10-09T04:13:06.169Z,42.50
2018-10-09T04:16:39.402Z,40.33
2018-10-09T04:20:12.640Z,38.63
2018-10-09T04:23:45.876Z,38.93
2018-10-09T04:27:19.489Z,36.13
2018-10-09T04:30:52.728Z,94.73
2018-10-09T04:34:25.955Z,94.77
2018-10-09T04:37:59.200Z,105.63
2018-10-09T04:41:32.432Z,49.13
2018-10-09T04:45:05.847Z,39.60
2018-10-09T04:48:39.098Z,42.10
2018-10-09T04:52:12.324Z,63.57
2018-10-09T04:55:45.555Z,39.57
2018-10-09T04:59:18.802Z,39.60
2018-10-09T05:02:52.015Z,40.20
2018-10-09T05:06:25.240Z,39.33
2018-10-09T05:09:58.517Z,37.53
2018-10-09T05:13:32.586Z,42.93
2018-10-09T05:17:05.969Z,35.43
2018-10-09T05:20:39.201Z,35.97
2018-10-09T05:24:12.484Z,42.20
2018-10-09T05:27:45.714Z,35.73
2018-10-09T05:31:19.006Z,38.30
2018-10-09T05:34:52.169Z,45.00
2018-10-09T05:38:25.403Z,46.87
2018-10-09T05:41:58.624Z,43.87
2018-10-09T05:45:36.304Z,41.43
2018-10-09T05:49:09.560Z,38.43
2018-10-09T05:52:42.817Z,37.37
2018-10-09T05:56:16.112Z,39.90
2018-10-09T05:59:49.343Z,34.10
2018-10-09T06:03:22.580Z,35.30
2018-10-09T06:06:55.808Z,34.63
2018-10-09T06:10:29.035Z,37.53
2018-10-09T06:14:02.260Z,39.03
2018-10-09T06:17:35.519Z,34.47
2018-10-09T06:21:08.782Z,31.80
2018-10-09T06:24:42.020Z,32.27
2018-10-09T06:28:15.429Z,31.70
2018-10-09T06:31:48.495Z,37.63
2018-10-09T06:35:21.728Z,35.63
2018-10-09T06:38:54.957Z,31.53
2018-10-09T06:42:28.192Z,27.77
2018-10-09T06:46:01.440Z,33.87
2018-10-09T06:49:34.676Z,32.17
2018-10-09T06:53:07.929Z,36.70
2018-10-09T06:56:42.229Z,34.10
2018-10-09T07:00:15.484Z,35.37
2018-10-09T07:03:48.708Z,35.87
2018-10-09T07:07:21.933Z,32.63
2018-10-09T07:10:55.431Z,36.17
2018-10-09T07:14:28.652Z,34.33
2018-10-09T07:18:01.893Z,40.43
2018-10-09T07:21:35.136Z,33.20
2018-10-09T07:25:08.396Z,37.23
2018-10-09T07:28:41.632Z,40.23
2018-10-09T07:32:14.872Z,33.67
2018-10-09T07:35:48.091Z,42.40
2018-10-09T07:39:21.320Z,40.53
2018-10-09T07:42:54.612Z,32.60
2018-10-09T07:46:29.844Z,37.83
2018-10-09T07:50:03.084Z,32.97
2018-10-09T07:53:36.376Z,39.63
2018-10-09T07:57:09.588Z,41.40
2018-10-09T08:00:42.811Z,42.10
2018-10-09T08:04:16.032Z,37.73
2018-10-09T08:07:49.257Z,43.43
2018-10-09T08:11:22.492Z,40.43
2018-10-09T08:14:55.716Z,43.63
2018-10-09T08:18:28.975Z,43.70
2018-10-09T08:22:02.358Z,45.57
2018-10-09T08:25:35.574Z,47.17
2018-10-09T08:29:08.808Z,40.80
2018-10-09T08:32:42.037Z,42.57
2018-10-09T08:36:15.260Z,43.87
2018-10-09T08:39:48.467Z,42.47
2018-10-09T08:43:21.692Z,41.40
2018-10-09T08:46:54.924Z,43.10
2018-10-09T08:50:28.160Z,42.20
2018-10-09T08:54:01.384Z,45.73
2018-10-09T08:57:34.620Z,47.83
2018-10-09T09:01:07.848Z,45.90
2018-10-09T09:04:41.079Z,38.67
2018-10-09T09:08:14.344Z,41.13
2018-10-09T09:11:47.569Z,40.50
2018-10-09T09:15:20.895Z,62.30
2018-10-09T09:18:54.085Z,49.00
2018-10-09T09:22:27.325Z,48.43
2018-10-09T09:26:00.571Z,50.13
2018-10-09T09:29:33.803Z,49.97
2018-10-09T09:33:07.080Z,54.90
2018-10-09T09:36:40.313Z,52.20
2018-10-09T09:40:13.561Z,54.83
2018-10-09T09:43:46.777Z,52.63
2018-10-09T09:47:20.013Z,53.50
2018-10-09T09:50:53.260Z,53.20
2018-10-09T09:54:26.492Z,49.83
2018-10-09T09:57:59.783Z,49.73
2018-10-09T10:01:38.431Z,47.30
2018-10-09T10:05:11.644Z,49.53
2018-10-09T10:08:44.900Z,47.53
2018-10-09T10:12:18.135Z,47.93
2018-10-09T10:15:51.422Z,49.47
2018-10-09T10:19:24.596Z,50.10
2018-10-09T10:22:57.830Z,48.77
2018-10-09T10:26:31.055Z,46.57
2018-10-09T10:30:04.689Z,48.77
2018-10-09T10:33:37.921Z,49.50
2018-10-09T10:37:11.157Z,48.00
2018-10-09T10:40:44.392Z,45.37
2018-10-09T10:44:17.625Z,45.07
2018-10-09T10:47:50.871Z,46.80
2018-10-09T10:51:24.112Z,46.03
2018-10-09T10:54:57.375Z,43.87
2018-10-09T10:58:30.567Z,39.53
2018-10-09T11:02:03.787Z,43.67
2018-10-09T11:05:37.019Z,46.30
2018-10-09T11:09:10.787Z,42.93
2018-10-09T11:12:44.012Z,40.10
2018-10-09T11:16:17.619Z,37.23
2018-10-09T11:19:50.849Z,40.77
2018-10-09T11:23:24.086Z,42.27
2018-10-09T11:26:57.314Z,46.53
2018-10-09T11:30:30.548Z,47.17
2018-10-09T11:34:03.819Z,41.97
2018-10-09T11:37:37.059Z,45.63
2018-10-09T11:41:10.304Z,46.20
2018-10-09T11:44:43.529Z,47.60
2018-10-09T11:48:16.767Z,46.50
2018-10-09T11:51:50.039Z,43.17
2018-10-09T11:55:23.234Z,46.60
2018-10-09T11:58:56.487Z,43.83
2018-10-09T12:02:29.711Z,43.13
2018-10-09T12:06:02.934Z,39.03
2018-10-09T12:09:36.189Z,37.07
2018-10-09T12:13:09.420Z,35.33
2018-10-09T12:16:42.659Z,40.47
2018-10-09T12:20:15.889Z,37.87
2018-10-09T12:23:49.142Z,37.40
2018-10-09T12:27:22.365Z,37.27
2018-10-09T12:30:55.603Z,37.40
2018-10-09T12:34:28.841Z,36.93
2018-10-09T12:38:02.070Z,37.00
2018-10-09T12:41:35.301Z,32.60
2018-10-09T12:45:08.580Z,35.50
2018-10-09T12:48:41.823Z,35.33
2018-10-09T12:52:15.033Z,35.67
2018-10-09T12:55:48.277Z,36.00
2018-10-09T12:59:21.505Z,35.90
2018-10-09T13:02:54.794Z,31.23
2018-10-09T13:06:27.996Z,31.37
2018-10-09T13:10:01.240Z,31.73
2018-10-09T13:13:34.481Z,32.33
2018-10-09T13:17:07.727Z,28.60
2018-10-09T13:20:40.953Z,29.70
2018-10-09T13:24:14.196Z,29.50
2018-10-09T13:27:47.431Z,32.57
2018-10-09T13:31:20.659Z,31.07
2018-10-09T13:34:53.885Z,21.63
2018-10-09T13:38:29.328Z,24.70
2018-10-09T13:42:02.580Z,20.87
2018-10-09T13:45:35.816Z,19.03
2018-10-09T13:49:10.472Z,16.53
2018-10-09T13:52:43.720Z,17.50
2018-10-09T13:56:16.957Z,17.23
2018-10-09T13:59:50.171Z,16.97
2018-10-09T14:03:23.413Z,17.13
2018-10-09T14:06:56.636Z,18.53
2018-10-09T14:10:29.900Z,18.00
2018-10-09T14:14:03.132Z,16.63
2018-10-09T14:17:36.376Z,13.50
2018-10-09T14:21:09.623Z,15.13
2018-10-09T14:24:42.858Z,15.07
2018-10-09T14:28:16.116Z,15.80
2018-10-09T14:31:49.364Z,15.30
2018-10-09T14:35:22.592Z,16.37
2018-10-09T14:38:55.850Z,15.10
2018-10-09T14:42:29.084Z,16.57
2018-10-09T14:46:02.313Z,15.27
2018-10-09T14:49:35.540Z,14.83
2018-10-09T14:53:08.777Z,15.53
2018-10-09T14:56:42.014Z,15.60
2018-10-09T15:00:15.239Z,16.73
2018-10-09T15:03:48.476Z,16.53
2018-10-09T15:07:21.793Z,17.07
2018-10-09T15:10:55.013Z,15.53
2018-10-09T15:14:28.277Z,16.63
2018-10-09T15:18:01.513Z,19.10
2018-10-09T15:21:34.771Z,18.10
2018-10-09T15:25:08.046Z,19.03
2018-10-09T15:28:41.285Z,18.63
2018-10-09T15:32:14.524Z,14.80
2018-10-09T15:35:47.751Z,17.27
2018-10-09T15:39:20.988Z,18.63
2018-10-09T15:42:54.233Z,16.87
2018-10-09T15:46:27.477Z,15.00
2018-10-09T15:50:00.720Z,15.00
2018-10-09T15:53:34.281Z,14.27
2018-10-09T15:57:07.859Z,13.37
2018-10-09T16:00:41.104Z,16.30
2018-10-09T16:04:14.395Z,15.80
2018-10-09T16:07:48.437Z,15.30
2018-10-09T16:11:21.655Z,14.00
2018-10-09T16:14:54.888Z,14.80
2018-10-09T16:18:28.119Z,15.10
2018-10-09T16:22:01.384Z,13.30
2018-10-09T16:25:34.618Z,16.07
2018-10-09T16:29:07.844Z,14.07
2018-10-09T16:32:41.245Z,16.40
2018-10-09T16:36:14.326Z,18.70
2018-10-09T16:39:47.570Z,16.70
2018-10-09T16:43:20.885Z,17.90
2018-10-09T16:46:54.105Z,19.63
2018-10-09T16:50:27.352Z,19.83
2018-10-09T16:54:00.626Z,22.40
2018-10-09T16:57:33.859Z,21.63
2018-10-09T17:01:07.540Z,21.13
2018-10-09T17:04:40.777Z,22.70
2018-10-09T17:08:14.008Z,19.97
2018-10-09T17:11:47.251Z,21.67
2018-10-09T17:15:20.541Z,22.90
2018-10-09T17:18:53.737Z,22.40
2018-10-09T17:22:26.996Z,23.90
2018-10-09T17:26:00.231Z,23.07
2018-10-09T17:29:33.484Z,24.57
2018-10-09T17:33:06.760Z,25.67
2018-10-09T17:36:40.205Z,24.30
2018-10-09T17:40:13.441Z,21.47
2018-10-09T17:43:46.907Z,27.87
2018-10-09T17:47:20.135Z,29.83
2018-10-09T17:50:53.368Z,28.83
2018-10-09T17:54:26.604Z,23.20
2018-10-09T17:57:59.827Z,26.27
2018-10-09T18:01:33.089Z,28.90
2018-10-09T18:05:06.347Z,29.50
2018-10-09T18:08:39.605Z,28.97
2018-10-09T18:12:12.813Z,26.27
2018-10-09T18:15:46.032Z,30.60
2018-10-09T18:19:19.276Z,29.60
2018-10-09T18:22:52.509Z,31.27
2018-10-09T18:26:25.744Z,26.87
2018-10-09T18:29:58.998Z,28.33
2018-10-09T18:33:32.228Z,29.93
2018-10-09T18:37:05.679Z,29.60
2018-10-09T18:40:39.458Z,31.03
2018-10-09T18:44:13.261Z,25.77
2018-10-09T18:47:46.560Z,28.80
2018-10-09T18:51:19.829Z,31.10
2018-10-09T18:54:53.064Z,38.03
2018-10-09T18:58:26.306Z,40.30
2018-10-09T19:01:59.546Z,39.33
2018-10-09T19:05:32.774Z,28.77
2018-10-09T19:09:08.893Z,41.90
2018-10-09T19:12:42.131Z,34.03
2018-10-09T19:16:15.382Z,38.37
2018-10-09T19:19:48.651Z,41.60
2018-10-09T19:23:21.932Z,43.00
2018-10-09T19:26:55.156Z,37.60
2018-10-09T19:30:28.406Z,36.30
2018-10-09T19:34:01.701Z,34.50
2018-10-09T19:37:34.912Z,34.27
2018-10-09T19:41:08.149Z,35.77
2018-10-09T19:44:41.398Z,32.20
2018-10-09T19:48:14.623Z,35.23
2018-10-09T19:51:47.857Z,31.60
2018-10-09T19:55:21.148Z,33.23
2018-10-09T19:58:54.621Z,31.63
2018-10-09T20:02:27.896Z,28.93
2018-10-09T20:06:01.116Z,29.63
2018-10-09T20:09:34.349Z,32.90
2018-10-09T20:13:07.645Z,32.17
2018-10-09T20:16:40.873Z,31.37
2018-10-09T20:20:14.116Z,33.87
2018-10-09T20:23:47.446Z,35.07
2018-10-09T20:27:20.675Z,35.57
2018-10-09T20:30:53.920Z,37.30
2018-10-09T20:34:27.151Z,38.03
2018-10-09T20:38:00.427Z,36.67
2018-10-09T20:41:33.699Z,30.87
2018-10-09T20:45:07.189Z,31.17
2018-10-09T20:48:40.479Z,29.20
2018-10-09T20:52:13.740Z,27.73
2018-10-09T20:55:47.060Z,26.13
2018-10-09T20:59:20.414Z,27.30
2018-10-09T21:02:53.683Z,27.47
2018-10-09T21:06:26.946Z,27.73
2018-10-09T21:10:00.438Z,27.93
2018-10-09T21:13:33.787Z,27.90
2018-10-09T21:17:07.065Z,28.80
2018-10-09T21:20:40.343Z,27.10
2018-10-09T21:24:13.625Z,29.03
2018-10-09T21:27:47.059Z,27.93
2018-10-09T21:31:20.293Z,28.47
2018-10-09T21:34:53.535Z,27.50
2018-10-09T21:38:26.748Z,26.77
2018-10-09T21:41:59.975Z,24.00
2018-10-09T21:45:33.220Z,29.90
2018-10-09T21:49:06.792Z,27.70
2018-10-09T21:52:40.018Z,29.53
2018-10-09T21:56:13.248Z,29.47
2018-10-09T21:59:46.491Z,30.47
2018-10-09T22:03:19.715Z,35.23
2018-10-09T22:06:52.947Z,28.73
2018-10-09T22:10:26.182Z,30.03
2018-10-09T22:13:59.409Z,29.90
2018-10-09T22:17:32.640Z,27.33
2018-10-09T22:21:06.116Z,29.70
2018-10-09T22:24:39.356Z,29.33
2018-10-09T22:28:12.581Z,28.03
2018-10-09T22:31:45.815Z,26.97
2018-10-09T22:35:19.043Z,31.63
2018-10-09T22:38:52.275Z,29.77
2018-10-09T22:42:25.511Z,27.87
2018-10-09T22:45:58.735Z,30.17
2018-10-09T22:49:31.961Z,29.47
2018-10-09T22:53:05.218Z,29.03
2018-10-09T22:56:38.448Z,29.20
2018-10-09T23:00:11.680Z,28.77
2018-10-09T23:03:44.929Z,26.77
2018-10-09T23:07:18.288Z,27.20
2018-10-09T23:10:51.528Z,27.20
2018-10-09T23:14:24.749Z,29.90
2018-10-09T23:17:57.976Z,29.00
2018-10-09T23:21:31.223Z,28.17
2018-10-09T23:25:04.710Z,30.70
2018-10-09T23:28:37.934Z,30.60
2018-10-09T23:32:11.164Z,27.13
2018-10-09T23:35:44.404Z,32.33
2018-10-09T23:39:17.640Z,26.47
2018-10-09T23:42:50.927Z,26.70
2018-10-09T23:46:24.159Z,28.37
2018-10-09T23:49:57.380Z,26.37
2018-10-09T23:53:30.621Z,24.37
2018-10-09T23:57:03.852Z,26.70
